Time;durP1;ratioP1;P1;durP2;ratioP2;P2;SDS_P1;SDS_P2;PMS_P1;PMS_P2;Temp;Humidity;BMP_temperature;BMP_pressure;BME280_temperature;BME280_humidity;BME280_pressure;Samples;Min_cycle;Max_cycle;Signal;HPM_P1;HPM_P2
2021/01/30 00:01:44;;;;;;;0.33;0.30;;;;;;;8.80;100.00;96794.34;5053025;28;20232;-72
2021/01/30 00:04:13;;;;;;;4.33;0.70;;;;;;;8.94;100.00;96791.34;5051715;28;20206;-75
2021/01/30 00:06:48;;;;;;;1.27;0.60;;;;;;;8.93;100.00;96792.38;5054455;28;20207;-74
2021/01/30 00:09:15;;;;;;;0.90;0.50;;;;;;;8.88;100.00;96800.22;5051329;28;20261;-74
2021/01/30 00:11:43;;;;;;;2.07;0.73;;;;;;;8.93;100.00;96802.22;5054397;28;20225;-74
2021/01/30 00:14:10;;;;;;;1.80;0.60;;;;;;;8.93;100.00;96803.03;5051275;28;20210;-73
2021/01/30 00:16:37;;;;;;;1.37;0.43;;;;;;;9.03;100.00;96818.50;5056849;28;20251;-75
2021/01/30 00:19:04;;;;;;;1.73;0.50;;;;;;;8.91;100.00;96810.41;5056780;28;20207;-74
2021/01/30 00:21:31;;;;;;;0.97;0.40;;;;;;;8.95;100.00;96808.97;5055787;28;20256;-72
2021/01/30 00:23:58;;;;;;;4.03;0.63;;;;;;;8.99;100.00;96815.44;5053915;28;20205;-71
2021/01/30 00:26:25;;;;;;;1.13;0.50;;;;;;;8.64;100.00;96811.69;5050297;28;20232;-72
2021/01/30 00:28:52;;;;;;;0.80;0.50;;;;;;;8.78;100.00;96807.06;5052331;28;20244;-73
2021/01/30 00:31:19;;;;;;;3.67;0.50;;;;;;;8.75;100.00;96808.31;5052398;28;20206;-73
2021/01/30 00:33:46;;;;;;;1.80;0.50;;;;;;;8.71;100.00;96808.97;5052864;28;20218;-73
2021/01/30 00:36:13;;;;;;;1.37;0.47;;;;;;;8.61;100.00;96801.50;5053591;28;20237;-72
2021/01/30 00:38:40;;;;;;;0.33;0.33;;;;;;;8.58;100.00;96809.88;5049099;28;20214;-72
2021/01/30 00:41:08;;;;;;;0.60;0.60;;;;;;;8.57;100.00;96802.94;5051877;28;20210;-72
2021/01/30 00:43:39;;;;;;;3.53;0.80;;;;;;;8.51;100.00;96803.81;5051034;28;20213;-72
2021/01/30 00:46:06;;;;;;;1.07;0.47;;;;;;;8.54;100.00;96805.22;5054483;28;20259;-73
2021/01/30 00:48:33;;;;;;;1.17;0.40;;;;;;;8.50;100.00;96812.00;5050054;28;20291;-72
2021/01/30 00:50:59;;;;;;;0.87;0.30;;;;;;;8.46;100.00;96803.66;5050842;28;20206;-72
2021/01/30 00:53:26;;;;;;;0.40;0.40;;;;;;;8.39;100.00;96808.22;5055005;28;20304;-72
2021/01/30 00:55:53;;;;;;;1.40;0.40;;;;;;;8.44;100.00;96802.25;5058034;28;20214;-72
2021/01/30 00:58:21;;;;;;;1.13;0.60;;;;;;;8.46;100.00;96805.50;5051159;28;20194;-72
2021/01/30 01:00:47;;;;;;;1.50;0.30;;;;;;;8.57;100.00;96810.13;5050463;28;20300;-72
2021/01/30 01:03:14;;;;;;;3.00;0.77;;;;;;;8.45;100.00;96812.66;5054273;28;20232;-73
2021/01/30 01:05:41;;;;;;;0.83;0.47;;;;;;;8.42;100.00;96810.44;5053720;28;20208;-73
2021/01/30 01:08:07;;;;;;;0.87;0.50;;;;;;;8.49;100.00;96813.88;5051079;28;20240;-72
2021/01/30 01:10:34;;;;;;;1.50;0.40;;;;;;;8.33;100.00;96808.28;5054497;28;20793;-73
2021/01/30 01:13:01;;;;;;;1.70;0.40;;;;;;;8.36;100.00;96800.66;5054798;28;20218;-73
2021/01/30 01:15:29;;;;;;;1.50;0.33;;;;;;;8.34;100.00;96800.09;5050821;28;20210;-72
2021/01/30 01:17:55;;;;;;;0.43;0.43;;;;;;;8.25;100.00;96805.88;5058636;28;20692;-71
2021/01/30 01:20:23;;;;;;;1.07;0.40;;;;;;;8.29;100.00;96815.03;5052500;28;20663;-73
2021/01/30 01:22:50;;;;;;;1.00;0.40;;;;;;;8.33;100.00;96814.38;5050165;28;20226;-72
2021/01/30 01:25:18;;;;;;;3.23;0.60;;;;;;;8.44;100.00;96811.06;5052384;28;20209;-73
2021/01/30 01:27:44;;;;;;;0.97;0.40;;;;;;;8.52;100.00;96813.41;5055054;28;20237;-74
2021/01/30 01:30:12;;;;;;;2.73;0.67;;;;;;;8.49;100.00;96819.19;5051399;28;20720;-72
2021/01/30 01:32:40;;;;;;;1.47;0.47;;;;;;;8.51;100.00;96821.59;5053995;28;20234;-74
2021/01/30 01:35:08;;;;;;;0.63;0.30;;;;;;;8.59;100.00;96816.84;5050940;28;20217;-72
2021/01/30 01:37:35;;;;;;;1.33;0.80;;;;;;;8.62;100.00;96815.63;5054176;28;20203;-72
2021/01/30 01:40:02;;;;;;;5.20;0.50;;;;;;;8.59;100.00;96810.72;5050743;28;20217;-73
2021/01/30 01:42:29;;;;;;;0.53;0.40;;;;;;;8.74;100.00;96814.69;5050733;28;20225;-72
2021/01/30 01:44:56;;;;;;;1.00;0.50;;;;;;;8.69;100.00;96819.03;5053118;28;20209;-73
2021/01/30 01:47:28;;;;;;;0.77;0.37;;;;;;;8.74;100.00;96825.31;5050424;28;20703;-73
2021/01/30 01:49:56;;;;;;;1.00;0.40;;;;;;;8.77;100.00;96822.22;5053434;28;20678;-72
2021/01/30 01:52:26;;;;;;;0.40;0.40;;;;;;;8.59;100.00;96818.69;5049621;28;20310;-72
2021/01/30 01:54:57;;;;;;;0.73;0.30;;;;;;;8.67;100.00;96827.22;5058373;28;20258;-71
2021/01/30 01:57:24;;;;;;;1.43;0.37;;;;;;;8.83;100.00;96824.00;5052277;28;20205;-70
2021/01/30 01:59:53;;;;;;;0.90;0.50;;;;;;;8.77;100.00;96822.22;5051219;28;20197;-73
2021/01/30 02:02:21;;;;;;;1.10;0.40;;;;;;;8.77;100.00;96824.88;5055223;28;20237;-72
2021/01/30 02:04:53;;;;;;;1.27;0.40;;;;;;;8.72;100.00;96830.03;5051277;28;20209;-72
2021/01/30 02:07:20;;;;;;;0.50;0.30;;;;;;;8.54;100.00;96824.69;5050075;28;20201;-72
2021/01/30 02:09:48;;;;;;;0.50;0.30;;;;;;;8.56;100.00;96821.78;5051132;28;20210;-73
2021/01/30 02:12:14;;;;;;;0.80;0.27;;;;;;;8.53;100.00;96822.22;5054874;28;20635;-71
2021/01/30 02:14:43;;;;;;;0.63;0.30;;;;;;;8.62;100.00;96820.94;5051183;28;20320;-72
2021/01/30 02:17:30;;;;;;;2.10;0.40;;;;;;;8.56;100.00;96816.44;5050902;28;20212;-74
2021/01/30 02:20:29;;;;;;;0.50;0.30;;;;;;;8.48;100.00;96806.09;5054806;28;20678;-72
2021/01/30 02:23:29;;;;;;;3.83;0.63;;;;;;;8.55;100.00;96802.38;5049394;28;20968;-72
2021/01/30 02:26:22;;;;;;;0.40;0.30;;;;;;;8.59;100.00;96808.06;4996523;28;20210;-73
2021/01/30 02:29:00;;;;;;;0.30;0.30;;;;;;;8.55;100.00;96807.69;5053299;28;20225;-74
2021/01/30 02:31:41;;;;;;;0.90;0.20;;;;;;;8.64;100.00;96798.41;5048840;28;20225;-73
2021/01/30 02:34:36;;;;;;;0.67;0.40;;;;;;;8.49;100.00;96799.75;5056317;28;20551;-74
2021/01/30 02:37:08;;;;;;;1.47;0.20;;;;;;;8.59;100.00;96802.75;5058484;28;20240;-73
2021/01/30 02:39:39;;;;;;;0.20;0.20;;;;;;;8.47;100.00;96809.81;5054824;28;20229;-73
2021/01/30 02:42:11;;;;;;;0.53;0.30;;;;;;;8.41;100.00;96806.16;5053531;28;20229;-73
2021/01/30 02:44:41;;;;;;;1.23;0.30;;;;;;;8.55;100.00;96797.06;5064939;28;20205;-73
2021/01/30 02:47:10;;;;;;;0.50;0.40;;;;;;;8.40;100.00;96803.72;5052710;28;20298;-73
2021/01/30 02:49:39;;;;;;;0.20;0.20;;;;;;;8.40;100.00;96785.94;5060450;28;20203;-73
2021/01/30 02:52:11;;;;;;;1.07;0.40;;;;;;;8.29;100.00;96791.13;5055041;28;20288;-74
2021/01/30 02:54:39;;;;;;;0.37;0.30;;;;;;;8.12;100.00;96796.09;5052073;28;20705;-72
2021/01/30 02:57:08;;;;;;;1.33;0.30;;;;;;;7.97;100.00;96789.47;5053815;28;20205;-73
2021/01/30 02:59:40;;;;;;;2.00;0.30;;;;;;;7.83;100.00;96783.44;5052260;28;20206;-73
2021/01/30 03:02:07;;;;;;;0.20;0.20;;;;;;;7.72;100.00;96778.78;5048599;28;20228;-73
2021/01/30 03:04:36;;;;;;;1.73;0.40;;;;;;;7.71;100.00;96782.47;5053329;28;20217;-73
2021/01/30 03:07:33;;;;;;;0.20;0.20;;;;;;;7.60;100.00;96777.00;5056556;28;20799;-72
2021/01/30 03:10:05;;;;;;;0.20;0.20;;;;;;;7.51;100.00;96779.09;5051933;28;20205;-73
2021/01/30 03:12:38;;;;;;;1.53;0.30;;;;;;;7.58;100.00;96769.28;5055113;28;20232;-74
2021/01/30 03:15:11;;;;;;;0.10;0.10;;;;;;;7.60;100.00;96779.66;5051535;28;20612;-72
2021/01/30 03:17:38;;;;;;;1.80;0.20;;;;;;;7.63;100.00;96777.44;5053284;28;20213;-73
2021/01/30 03:20:06;;;;;;;0.13;0.13;;;;;;;7.62;100.00;96781.09;5051115;28;20207;-73
2021/01/30 03:22:34;;;;;;;0.20;0.13;;;;;;;7.72;100.00;96778.00;5054651;28;20236;-73
2021/01/30 03:25:01;;;;;;;0.20;0.20;;;;;;;7.72;100.00;96773.47;5049724;28;20301;-72
2021/01/30 03:27:31;;;;;;;0.30;0.30;;;;;;;7.73;100.00;96772.47;5056744;28;20202;-73
2021/01/30 03:29:58;;;;;;;0.30;0.30;;;;;;;7.73;100.00;96777.78;5053616;28;20213;-73
2021/01/30 03:32:27;;;;;;;0.60;0.30;;;;;;;7.79;100.00;96781.41;5055484;28;20252;-72
2021/01/30 03:34:55;;;;;;;0.30;0.30;;;;;;;7.84;100.00;96773.63;5053480;28;20206;-72
2021/01/30 03:37:22;;;;;;;0.90;0.57;;;;;;;7.83;100.00;96774.66;5057055;28;20197;-72
2021/01/30 03:39:50;;;;;;;0.30;0.30;;;;;;;7.79;100.00;96774.28;5053531;28;20198;-73
2021/01/30 03:42:17;;;;;;;0.73;0.20;;;;;;;7.87;100.00;96781.16;5056340;28;20233;-72
2021/01/30 03:44:44;;;;;;;0.23;0.23;;;;;;;7.88;100.00;96764.19;5052920;28;20202;-73
2021/01/30 03:47:11;;;;;;;0.20;0.20;;;;;;;7.74;100.00;96766.13;5052762;28;20629;-73
2021/01/30 03:49:38;;;;;;;0.20;0.20;;;;;;;7.94;100.00;96758.03;5052743;28;20205;-72
2021/01/30 03:52:05;;;;;;;0.40;0.30;;;;;;;7.94;100.00;96750.06;5052727;28;20295;-74
2021/01/30 03:54:32;;;;;;;0.30;0.20;;;;;;;7.76;100.00;96752.63;5053947;28;20213;-71
2021/01/30 03:57:00;;;;;;;2.43;0.40;;;;;;;7.93;100.00;96749.25;5058170;28;20252;-71
2021/01/30 03:59:26;;;;;;;0.77;0.40;;;;;;;7.97;100.00;96760.25;5052233;28;20224;-72
2021/01/30 04:01:53;;;;;;;0.20;0.20;;;;;;;7.94;100.00;96748.22;5054812;28;20226;-72
2021/01/30 04:04:20;;;;;;;0.20;0.20;;;;;;;8.04;100.00;96745.09;5052965;28;20213;-71
2021/01/30 04:06:47;;;;;;;0.20;0.20;;;;;;;8.06;100.00;96748.31;5059608;28;20213;-71
2021/01/30 04:09:15;;;;;;;1.13;0.30;;;;;;;7.88;100.00;96746.44;5054531;28;20720;-71
2021/01/30 04:11:42;;;;;;;0.30;0.30;;;;;;;7.92;100.00;96736.97;5052502;28;20236;-73
2021/01/30 04:14:10;;;;;;;0.20;0.20;;;;;;;7.89;100.00;96733.94;5053914;28;20212;-73
2021/01/30 04:16:37;;;;;;;0.63;0.30;;;;;;;7.84;100.00;96736.44;5055117;28;20209;-73
2021/01/30 04:19:04;;;;;;;1.60;0.30;;;;;;;7.88;100.00;96725.19;5052399;28;20205;-72
2021/01/30 04:21:31;;;;;;;0.20;0.20;;;;;;;7.92;100.00;96723.69;5052259;28;20225;-74
2021/01/30 04:23:58;;;;;;;1.87;0.20;;;;;;;7.94;100.00;96718.19;5060582;28;20270;-72
2021/01/30 04:26:25;;;;;;;0.30;0.30;;;;;;;7.82;100.00;96719.91;5059610;28;20206;-72
2021/01/30 04:28:52;;;;;;;0.30;0.30;;;;;;;7.97;100.00;96718.56;5059253;28;20231;-73
2021/01/30 04:31:23;;;;;;;0.30;0.30;;;;;;;8.04;100.00;96719.34;5052699;28;20210;-73
2021/01/30 04:33:51;;;;;;;1.80;0.50;;;;;;;8.09;100.00;96716.84;5053496;28;20206;-72
2021/01/30 04:36:19;;;;;;;0.80;0.27;;;;;;;7.90;100.00;96717.81;5059356;28;20273;-72
2021/01/30 04:38:46;;;;;;;0.70;0.40;;;;;;;8.08;100.00;96714.41;5055296;28;20288;-72
2021/01/30 04:41:23;;;;;;;0.50;0.30;;;;;;;8.19;100.00;96713.69;5053596;28;20228;-72
2021/01/30 04:43:57;;;;;;;0.73;0.30;;;;;;;8.10;100.00;96712.34;5057608;28;20223;-72
2021/01/30 04:46:43;;;;;;;0.60;0.40;;;;;;;8.07;100.00;96710.91;5057165;28;20220;-72
2021/01/30 04:49:16;;;;;;;1.40;0.40;;;;;;;7.93;100.00;96711.25;5058236;28;20236;-72
2021/01/30 04:51:52;;;;;;;0.43;0.30;;;;;;;8.00;100.00;96704.84;5051084;28;20280;-73
2021/01/30 04:54:40;;;;;;;2.87;0.57;;;;;;;8.08;100.00;96704.56;5056816;28;20212;-72
2021/01/30 04:57:20;;;;;;;3.73;0.67;;;;;;;8.06;100.00;96692.53;5055396;28;20212;-72
2021/01/30 05:00:00;;;;;;;1.53;0.40;;;;;;;7.89;100.00;96688.81;5057069;28;20724;-72
2021/01/30 05:02:35;;;;;;;3.33;0.60;;;;;;;7.91;100.00;96695.53;5052987;28;20257;-72
2021/01/30 05:05:03;;;;;;;6.13;0.80;;;;;;;7.97;100.00;96688.53;5052018;28;20209;-72
2021/01/30 05:07:34;;;;;;;5.40;0.60;;;;;;;7.85;100.00;96680.47;5051864;28;20252;-72
2021/01/30 05:10:04;;;;;;;1.27;0.40;;;;;;;7.93;100.00;96690.84;5054064;28;20227;-72
2021/01/30 05:12:41;;;;;;;1.40;0.47;;;;;;;7.99;100.00;96679.34;5051990;28;20728;-71
2021/01/30 05:15:13;;;;;;;0.80;0.50;;;;;;;8.10;100.00;96683.94;5052031;28;20206;-72
2021/01/30 05:17:51;;;;;;;1.13;0.50;;;;;;;8.07;100.00;96686.22;5052082;28;20221;-72
2021/01/30 05:20:18;;;;;;;5.30;1.47;;;;;;;8.05;100.00;96683.78;5051966;28;20235;-73
2021/01/30 05:22:47;;;;;;;2.17;1.10;;;;;;;8.09;100.00;96684.97;5051457;28;20635;-72
2021/01/30 05:25:18;;;;;;;3.57;0.60;;;;;;;8.06;100.00;96679.25;5058096;28;20225;-73
2021/01/30 05:28:09;;;;;;;1.90;0.70;;;;;;;8.06;100.00;96671.28;5051352;28;20232;-72
2021/01/30 05:30:54;;;;;;;1.47;0.47;;;;;;;8.01;100.00;96663.97;5047564;28;20205;-72
2021/01/30 05:33:36;;;;;;;3.37;0.70;;;;;;;8.02;100.00;96672.78;5051454;28;20228;-72
2021/01/30 05:36:09;;;;;;;2.53;0.90;;;;;;;8.13;100.00;96670.19;5051850;28;20216;-72
2021/01/30 05:38:45;;;;;;;3.13;0.80;;;;;;;8.03;100.00;96669.91;5054492;28;20208;-72
2021/01/30 05:41:16;;;;;;;2.40;0.83;;;;;;;8.07;100.00;96665.75;5052812;28;20213;-72
2021/01/30 05:43:48;;;;;;;2.57;0.80;;;;;;;8.08;100.00;96669.25;5051333;28;20617;-73
2021/01/30 05:46:21;;;;;;;2.37;0.77;;;;;;;8.00;100.00;96659.69;5055062;28;20551;-72
2021/01/30 05:48:50;;;;;;;4.10;0.70;;;;;;;7.98;100.00;96672.41;5054287;28;20581;-72
2021/01/30 05:51:20;;;;;;;3.27;0.87;;;;;;;7.97;100.00;96662.78;5051888;28;20220;-72
2021/01/30 05:53:47;;;;;;;3.80;0.80;;;;;;;7.91;100.00;96660.19;5050218;28;20844;-71
2021/01/30 05:56:14;;;;;;;4.17;0.70;;;;;;;7.84;100.00;96659.44;5056241;28;20571;-72
2021/01/30 05:58:42;;;;;;;3.77;0.90;;;;;;;7.93;100.00;96661.63;5052521;28;20275;-72
2021/01/30 06:01:28;;;;;;;5.60;1.20;;;;;;;8.09;100.00;96657.56;5053130;28;20216;-72
2021/01/30 06:03:58;;;;;;;2.00;0.90;;;;;;;7.99;100.00;96646.63;5053703;28;20204;-71
2021/01/30 06:06:28;;;;;;;6.13;1.00;;;;;;;8.07;100.00;96649.81;5044675;28;20659;-73
2021/01/30 06:08:56;;;;;;;5.67;0.77;;;;;;;7.97;100.00;96649.50;5046850;28;20229;-72
2021/01/30 06:11:23;;;;;;;4.07;0.90;;;;;;;8.04;100.00;96654.75;5054263;28;20202;-71
2021/01/30 06:13:55;;;;;;;5.23;0.70;;;;;;;7.98;100.00;96645.84;5052658;28;20213;-72
2021/01/30 06:16:43;;;;;;;5.43;1.20;;;;;;;8.02;100.00;96641.69;5057306;28;20205;-72
2021/01/30 06:19:14;;;;;;;4.80;0.80;;;;;;;8.06;100.00;96645.53;5051728;28;20727;-72
2021/01/30 06:21:41;;;;;;;2.40;0.90;;;;;;;7.98;100.00;96640.53;5054785;28;20232;-72
2021/01/30 06:24:10;;;;;;;6.10;0.90;;;;;;;8.09;100.00;96639.81;5055578;28;20215;-72
2021/01/30 06:26:41;;;;;;;3.07;0.63;;;;;;;8.10;100.00;96640.59;5054599;28;20696;-71
2021/01/30 06:29:15;;;;;;;7.43;0.90;;;;;;;8.07;100.00;96643.72;5055556;28;20229;-71
2021/01/30 06:31:42;;;;;;;5.60;1.27;;;;;;;8.09;100.00;96636.31;5048483;28;20218;-72
2021/01/30 06:34:23;;;;;;;7.27;0.77;;;;;;;7.96;100.00;96626.63;5052710;28;20674;-72
2021/01/30 06:36:52;;;;;;;6.33;1.00;;;;;;;7.99;100.00;96636.84;5054610;28;20221;-75
2021/01/30 06:39:28;;;;;;;1.97;0.90;;;;;;;7.93;100.00;96632.41;5054400;28;20245;-76
2021/01/30 06:41:56;;;;;;;4.57;0.93;;;;;;;8.08;100.00;96624.88;5058212;28;20243;-73
2021/01/30 06:44:26;;;;;;;4.93;0.90;;;;;;;8.01;100.00;96629.44;5052854;28;20569;-72
2021/01/30 06:47:14;;;;;;;3.33;0.90;;;;;;;8.13;100.00;96627.69;5056376;28;20571;-72
2021/01/30 06:49:43;;;;;;;4.67;1.47;;;;;;;8.07;100.00;96630.44;5053308;28;20222;-73
2021/01/30 06:52:18;;;;;;;5.90;1.20;;;;;;;8.07;100.00;96628.56;5057585;28;20819;-73
2021/01/30 06:54:45;;;;;;;9.27;1.10;;;;;;;8.20;100.00;96638.28;5056825;28;20201;-72
2021/01/30 06:57:15;;;;;;;4.50;1.30;;;;;;;8.24;100.00;96637.66;5054888;28;20210;-72
2021/01/30 06:59:53;;;;;;;4.27;1.13;;;;;;;8.19;100.00;96639.28;5048168;28;20198;-72
2021/01/30 07:02:24;;;;;;;5.97;1.13;;;;;;;8.11;100.00;96628.94;5056476;28;20230;-72
2021/01/30 07:05:08;;;;;;;5.63;1.00;;;;;;;8.13;100.00;96627.69;5062187;28;20209;-74
2021/01/30 07:07:40;;;;;;;11.47;1.30;;;;;;;8.21;100.00;96632.75;5053232;28;20204;-72
2021/01/30 07:10:33;;;;;;;6.63;1.20;;;;;;;8.20;100.00;96627.66;5054755;28;20206;-71
2021/01/30 07:13:12;;;;;;;6.07;1.50;;;;;;;8.11;100.00;96627.09;5039726;28;20221;-73
2021/01/30 07:15:43;;;;;;;5.67;1.13;;;;;;;8.11;100.00;96624.44;5058391;28;20204;-76
2021/01/30 07:18:28;;;;;;;4.17;0.93;;;;;;;8.26;100.00;96626.78;5054641;28;20626;-72
2021/01/30 07:21:10;;;;;;;5.93;1.60;;;;;;;8.12;100.00;96623.41;5053389;28;20198;-71
2021/01/30 07:23:43;;;;;;;5.13;1.07;;;;;;;8.21;100.00;96623.97;5053131;28;20190;-72
2021/01/30 07:26:15;;;;;;;4.80;1.40;;;;;;;8.26;100.00;96627.59;5053875;28;20198;-73
2021/01/30 07:28:45;;;;;;;7.10;1.43;;;;;;;8.12;100.00;96619.97;5062282;28;20217;-72
2021/01/30 07:31:15;;;;;;;6.10;1.00;;;;;;;8.30;100.00;96615.50;5055192;28;20252;-72
2021/01/30 07:33:49;;;;;;;4.20;1.17;;;;;;;8.34;100.00;96618.53;5057917;28;20257;-75
2021/01/30 07:36:21;;;;;;;3.43;1.00;;;;;;;8.42;100.00;96618.25;5053644;28;20202;-77
2021/01/30 07:38:52;;;;;;;5.43;1.23;;;;;;;8.34;100.00;96619.34;5059357;28;20186;-74
2021/01/30 07:41:25;;;;;;;3.27;1.40;;;;;;;8.17;100.00;96612.16;5053465;28;20202;-72
2021/01/30 07:43:57;;;;;;;5.97;1.20;;;;;;;8.24;100.00;96610.25;5053925;28;20674;-74
2021/01/30 07:46:28;;;;;;;5.77;1.37;;;;;;;8.38;100.00;96601.91;5053427;28;20202;-73
2021/01/30 07:48:57;;;;;;;3.30;1.17;;;;;;;8.27;100.00;96607.16;5055011;28;20218;-76
2021/01/30 07:51:27;;;;;;;3.57;1.13;;;;;;;8.42;100.00;96603.09;5053288;28;20211;-76
2021/01/30 07:53:54;;;;;;;2.37;1.00;;;;;;;8.49;100.00;96595.88;5053674;28;20260;-74
2021/01/30 07:56:40;;;;;;;8.97;1.37;;;;;;;8.54;100.00;96600.53;5055072;28;20224;-77
2021/01/30 07:59:22;;;;;;;4.50;1.30;;;;;;;8.51;100.00;96590.31;5060565;28;20658;-75
2021/01/30 08:02:01;;;;;;;4.27;1.20;;;;;;;8.46;100.00;96591.00;5058053;28;20724;-77
2021/01/30 08:04:48;;;;;;;1.97;0.87;;;;;;;8.40;100.00;96583.09;5054247;28;20197;-75
2021/01/30 08:07:33;;;;;;;5.07;1.40;;;;;;;8.51;100.00;96587.66;5056973;28;20210;-76
2021/01/30 08:10:05;;;;;;;10.27;1.77;;;;;;;8.65;100.00;96576.66;5054510;28;20222;-74
2021/01/30 08:12:47;;;;;;;4.57;0.90;;;;;;;8.69;100.00;96577.84;5053365;28;20222;-73
2021/01/30 08:15:19;;;;;;;8.27;1.20;;;;;;;8.73;100.00;96581.66;5052680;28;20198;-72
2021/01/30 08:17:53;;;;;;;5.87;1.23;;;;;;;8.88;100.00;96571.44;5053434;28;20194;-72
2021/01/30 08:20:25;;;;;;;7.70;1.27;;;;;;;9.00;100.00;96574.97;5053899;28;20224;-76
2021/01/30 08:22:56;;;;;;;4.33;1.00;;;;;;;9.02;100.00;96570.22;5056864;28;20229;-72
2021/01/30 08:25:28;;;;;;;3.17;1.17;;;;;;;9.15;100.00;96575.38;5055386;28;20204;-73
2021/01/30 08:28:00;;;;;;;5.23;1.00;;;;;;;9.18;100.00;96569.59;5062745;28;20202;-74
2021/01/30 08:30:27;;;;;;;5.33;1.43;;;;;;;9.13;100.00;96560.69;5064458;28;20211;-74
2021/01/30 08:32:58;;;;;;;3.20;1.10;;;;;;;9.12;100.00;96570.50;5056470;28;20288;-75
2021/01/30 08:35:41;;;;;;;4.20;1.60;;;;;;;9.35;100.00;96572.41;5055275;28;20247;-77
2021/01/30 08:38:10;;;;;;;4.57;1.23;;;;;;;9.38;100.00;96559.44;5053744;28;20572;-74
2021/01/30 08:40:48;;;;;;;5.07;1.30;;;;;;;9.32;100.00;96557.72;5052808;28;20208;-76
2021/01/30 08:43:21;;;;;;;6.57;1.50;;;;;;;9.39;100.00;96553.09;5053298;28;20222;-76
2021/01/30 08:45:49;;;;;;;3.60;0.90;;;;;;;9.39;100.00;96557.63;5053427;28;20202;-75
2021/01/30 08:48:27;;;;;;;3.30;1.00;;;;;;;9.53;100.00;96562.50;5060815;28;20746;-75
2021/01/30 08:50:56;;;;;;;5.83;1.53;;;;;;;9.56;100.00;96553.22;5054075;28;20190;-80
2021/01/30 08:53:30;;;;;;;5.60;2.03;;;;;;;9.58;100.00;96562.63;5054240;28;20229;-77
2021/01/30 08:55:58;;;;;;;4.73;1.43;;;;;;;9.66;100.00;96561.47;5053155;28;20684;-73
2021/01/30 08:58:49;;;;;;;5.93;1.07;;;;;;;9.76;100.00;96559.88;5045042;28;20194;-76
2021/01/30 09:01:58;;;;;;;5.73;1.13;;;;;;;9.61;100.00;96567.50;5044596;28;20223;-73
2021/01/30 09:04:59;;;;;;;7.33;0.80;;;;;;;9.70;100.00;96563.44;5037869;28;20260;-74
2021/01/30 09:07:48;;;;;;;4.83;1.37;;;;;;;9.56;100.00;96570.03;5048278;28;20200;-77
2021/01/30 09:10:37;;;;;;;4.20;0.90;;;;;;;9.62;100.00;96565.63;5056461;28;20221;-77
2021/01/30 09:13:10;;;;;;;4.27;1.07;;;;;;;9.55;100.00;96559.59;5048847;28;20595;-75
2021/01/30 09:16:09;;;;;;;5.33;1.20;;;;;;;9.72;100.00;96552.56;5051752;28;20727;-75
2021/01/30 09:18:52;;;;;;;4.23;1.10;;;;;;;9.88;100.00;96547.34;5052108;28;20314;-76
2021/01/30 09:21:28;;;;;;;6.93;1.40;;;;;;;9.84;100.00;96551.50;5053167;28;20198;-75
2021/01/30 09:24:16;;;;;;;3.60;1.20;;;;;;;9.92;100.00;96537.84;5052752;28;20190;-76
2021/01/30 09:26:50;;;;;;;5.57;0.97;;;;;;;9.89;100.00;96525.00;5048709;28;20225;-78
2021/01/30 09:29:20;;;;;;;5.73;1.27;;;;;;;9.98;100.00;96528.94;5051740;28;20709;-73
2021/01/30 09:31:48;;;;;;;3.70;1.40;;;;;;;10.09;100.00;96533.47;5049577;28;20226;-77
2021/01/30 09:34:17;;;;;;;4.00;1.10;;;;;;;10.04;100.00;96516.56;5052643;28;20206;-75
2021/01/30 09:36:46;;;;;;;5.73;1.20;;;;;;;9.71;100.00;96524.28;5054818;28;20647;-74
2021/01/30 09:39:22;;;;;;;5.63;1.47;;;;;;;9.87;100.00;96524.41;5053958;28;20219;-75
2021/01/30 09:41:50;;;;;;;3.80;1.20;;;;;;;9.91;100.00;96527.44;5049407;28;20221;-71
2021/01/30 09:44:25;;;;;;;5.60;1.10;;;;;;;10.34;100.00;96527.84;5052364;28;20248;-77
2021/01/30 09:46:55;;;;;;;6.00;1.30;;;;;;;10.36;100.00;96525.78;5055620;28;20201;-74
2021/01/30 09:49:23;;;;;;;7.90;1.33;;;;;;;10.64;100.00;96523.13;5051612;28;20304;-76
2021/01/30 09:51:53;;;;;;;4.20;1.23;;;;;;;10.21;100.00;96525.47;5055189;28;20242;-75
2021/01/30 09:54:20;;;;;;;6.47;1.10;;;;;;;10.15;100.00;96529.06;5054784;28;20266;-75
2021/01/30 09:56:47;;;;;;;6.80;1.43;;;;;;;10.21;100.00;96533.47;5056299;28;20739;-75
2021/01/30 09:59:16;;;;;;;7.03;1.30;;;;;;;10.81;100.00;96530.16;5051146;28;20192;-75
2021/01/30 10:01:45;;;;;;;5.00;1.03;;;;;;;10.75;100.00;96528.44;5053440;28;20220;-77
2021/01/30 10:04:21;;;;;;;6.27;1.50;;;;;;;10.74;100.00;96528.66;5051573;28;20662;-76
2021/01/30 10:06:49;;;;;;;6.10;1.33;;;;;;;10.90;100.00;96528.72;5050322;28;20212;-74
2021/01/30 10:09:19;;;;;;;5.20;1.23;;;;;;;10.74;100.00;96521.50;5049198;28;20226;-74
2021/01/30 10:11:49;;;;;;;3.97;1.10;;;;;;;10.76;100.00;96516.72;5053885;28;20227;-74
2021/01/30 10:14:19;;;;;;;5.77;1.40;;;;;;;10.78;100.00;96514.63;5055438;28;20206;-80
2021/01/30 10:16:56;;;;;;;4.10;0.93;;;;;;;10.52;100.00;96512.53;5062965;28;20208;-80
2021/01/30 10:19:25;;;;;;;4.77;1.07;;;;;;;10.54;100.00;96522.94;5062404;28;20204;-79
2021/01/30 10:21:53;;;;;;;9.47;1.53;;;;;;;10.68;100.00;96509.09;5054037;28;20609;-72
2021/01/30 10:24:22;;;;;;;5.23;1.40;;;;;;;10.65;100.00;96500.78;5050870;28;20223;-74
2021/01/30 10:26:50;;;;;;;7.63;1.33;;;;;;;10.60;100.00;96506.81;5051031;28;20206;-74
2021/01/30 10:29:20;;;;;;;7.43;1.47;;;;;;;10.84;100.00;96504.84;5054291;28;20240;-77
2021/01/30 10:31:49;;;;;;;2.20;1.00;;;;;;;10.46;100.00;96502.78;5056726;28;20545;-76
2021/01/30 10:34:20;;;;;;;7.47;1.80;;;;;;;10.70;100.00;96498.19;5065261;28;20215;-78
2021/01/30 10:36:53;;;;;;;4.73;1.20;;;;;;;10.56;100.00;96492.31;5066665;28;20271;-80
2021/01/30 10:39:21;;;;;;;7.83;1.40;;;;;;;10.42;100.00;96495.50;5068773;28;20213;-80
2021/01/30 10:41:49;;;;;;;4.90;1.37;;;;;;;10.23;100.00;96493.25;5055941;28;20258;-76
2021/01/30 10:44:24;;;;;;;6.57;1.10;;;;;;;10.38;100.00;96492.50;5056672;28;20294;-77
2021/01/30 10:46:56;;;;;;;4.83;1.23;;;;;;;10.48;100.00;96496.41;5055427;28;20303;-77
2021/01/30 10:49:26;;;;;;;2.80;1.00;;;;;;;10.32;100.00;96488.13;5057621;28;20220;-77
2021/01/30 10:52:02;;;;;;;3.33;1.20;;;;;;;10.33;100.00;96486.25;5056069;28;20232;-78
2021/01/30 10:54:30;;;;;;;5.20;1.20;;;;;;;10.32;100.00;96484.63;5056722;28;20748;-71
2021/01/30 10:57:26;;;;;;;3.30;1.20;;;;;;;10.21;100.00;96477.47;5056675;28;20588;-78
2021/01/30 10:59:59;;;;;;;4.73;1.23;;;;;;;10.30;100.00;96479.53;5056145;28;20195;-77
2021/01/30 11:02:41;;;;;;;7.07;1.10;;;;;;;10.20;100.00;96475.88;5055761;28;20265;-75
2021/01/30 11:05:23;;;;;;;8.20;1.20;;;;;;;10.34;100.00;96482.53;5054728;28;20232;-77
2021/01/30 11:07:52;;;;;;;7.67;1.63;;;;;;;10.53;100.00;96474.13;5052987;28;20265;-76
2021/01/30 11:10:23;;;;;;;3.70;1.23;;;;;;;10.18;100.00;96473.44;5059122;28;20232;-79
2021/01/30 11:12:51;;;;;;;5.07;1.60;;;;;;;9.87;100.00;96473.81;5059525;28;20221;-76
2021/01/30 11:15:21;;;;;;;5.97;1.50;;;;;;;10.30;100.00;96468.88;5060861;28;20207;-77
2021/01/30 11:17:49;;;;;;;5.57;1.20;;;;;;;10.05;100.00;96468.34;5059763;28;20211;-77
2021/01/30 11:20:43;;;;;;;2.83;0.90;;;;;;;10.20;100.00;96454.53;5059691;28;20214;-78
2021/01/30 11:23:11;;;;;;;2.80;1.23;;;;;;;10.29;100.00;96450.44;5056614;28;20297;-78
2021/01/30 11:25:41;;;;;;;7.80;1.30;;;;;;;10.34;100.00;96451.34;5056406;28;20204;-78
2021/01/30 11:28:08;;;;;;;4.17;1.37;;;;;;;10.15;100.00;96441.09;5058318;28;20204;-77
2021/01/30 11:30:37;;;;;;;7.77;1.70;;;;;;;10.18;100.00;96440.63;5061648;28;20278;-77
2021/01/30 11:33:10;;;;;;;4.83;1.00;;;;;;;9.94;100.00;96437.16;5060604;28;20238;-85
2021/01/30 11:35:39;;;;;;;7.10;1.30;;;;;;;10.02;100.00;96434.16;5063134;28;20226;-75
2021/01/30 11:38:08;;;;;;;5.10;1.33;;;;;;;10.18;100.00;96431.81;5062830;28;20196;-79
2021/01/30 11:40:35;;;;;;;3.73;1.33;;;;;;;10.01;100.00;96429.06;5060848;28;20583;-76
2021/01/30 11:43:01;;;;;;;4.37;0.90;;;;;;;9.74;100.00;96422.63;5059768;28;20234;-75
2021/01/30 11:45:28;;;;;;;6.23;1.13;;;;;;;9.89;100.00;96415.75;5061711;28;20217;-76
2021/01/30 11:47:56;;;;;;;3.10;1.17;;;;;;;10.03;100.00;96408.28;5058123;28;20661;-77
2021/01/30 11:50:23;;;;;;;6.27;1.33;;;;;;;10.12;100.00;96406.13;5057472;28;20225;-79
2021/01/30 11:52:49;;;;;;;3.47;0.73;;;;;;;10.08;100.00;96403.09;5058558;28;20239;-75
2021/01/30 11:55:19;;;;;;;8.17;1.27;;;;;;;9.75;100.00;96395.72;5055108;28;20211;-75